Time;durP1;ratioP1;P1;durP2;ratioP2;P2;SDS_P1;SDS_P2;PMS_P1;PMS_P2;Temp;Humidity;BMP_temperature;BMP_pressure;BME280_temperature;BME280_humidity;BME280_pressure;Samples;Min_cycle;Max_cycle;Signal;HPM_P1;HPM_P2
2023/03/21 00:01:05;;;;;;;1.13;1.13;;;9.60;99.90;;;;;;5046328;28;20040;-78
2023/03/21 00:03:32;;;;;;;1.10;1.10;;;9.80;99.90;;;;;;5063240;28;20044;-78
2023/03/21 00:05:59;;;;;;;1.08;1.08;;;9.80;99.90;;;;;;5049404;28;20048;-78
2023/03/21 00:08:25;;;;;;;1.10;1.10;;;9.70;99.90;;;;;;5047828;28;20044;-78
2023/03/21 00:10:57;;;;;;;1.10;1.10;;;9.80;99.90;;;;;;5045372;28;20090;-78
2023/03/21 00:13:23;;;;;;;1.10;1.10;;;9.90;99.90;;;;;;5065158;28;20554;-78
2023/03/21 00:15:53;;;;;;;1.20;1.20;;;9.80;99.90;;;;;;5043947;28;20052;-78
2023/03/21 00:18:22;;;;;;;1.10;1.10;;;9.70;99.90;;;;;;5062914;28;20056;-78
2023/03/21 00:20:59;;;;;;;1.02;1.02;;;9.70;99.90;;;;;;5048699;28;20477;-78
2023/03/21 00:23:26;;;;;;;1.17;1.17;;;9.70;99.90;;;;;;5064009;28;20048;-78
2023/03/21 00:25:52;;;;;;;1.08;1.08;;;9.90;99.90;;;;;;5049556;28;20859;-78
2023/03/21 00:28:18;;;;;;;1.10;1.10;;;9.80;99.90;;;;;;5052842;28;20162;-78
2023/03/21 00:30:43;;;;;;;1.10;1.10;;;9.90;99.90;;;;;;5066185;28;20436;-78
2023/03/21 00:33:09;;;;;;;1.10;1.10;;;9.90;99.90;;;;;;5063592;28;20036;-78
2023/03/21 00:35:35;;;;;;;1.08;1.08;;;9.90;99.90;;;;;;5069373;28;20393;-78
2023/03/21 00:38:01;;;;;;;1.08;1.08;;;10.00;99.90;;;;;;5063856;28;20707;-78
2023/03/21 00:40:27;;;;;;;1.10;1.10;;;9.80;99.90;;;;;;5052668;28;20562;-78
2023/03/21 00:42:53;;;;;;;1.10;1.10;;;9.80;99.90;;;;;;5070926;28;20055;-78
2023/03/21 00:45:20;;;;;;;1.10;1.10;;;9.90;99.90;;;;;;5072521;28;20052;-78
2023/03/21 00:47:46;;;;;;;1.10;1.10;;;9.90;99.90;;;;;;5074457;28;20146;-78
2023/03/21 00:50:12;;;;;;;1.02;1.02;;;10.00;99.90;;;;;;5055343;28;20501;-78
2023/03/21 00:52:38;;;;;;;1.10;1.10;;;9.80;99.90;;;;;;5072326;28;20050;-78
2023/03/21 00:55:06;;;;;;;1.08;1.08;;;10.00;99.90;;;;;;5074415;28;20071;-78
2023/03/21 00:57:31;;;;;;;1.10;1.10;;;9.80;99.90;;;;;;5073787;28;20040;-78
2023/03/21 00:59:57;;;;;;;1.05;1.05;;;9.90;99.90;;;;;;5074503;28;20043;-79
2023/03/21 01:02:26;;;;;;;1.00;1.00;;;9.80;99.90;;;;;;5072976;28;20043;-78
2023/03/21 01:04:54;;;;;;;1.10;1.10;;;10.00;99.90;;;;;;5072692;28;20086;-78
2023/03/21 01:07:25;;;;;;;1.35;1.25;;;10.00;99.90;;;;;;5071863;28;20755;-78
2023/03/21 01:09:51;;;;;;;1.10;1.10;;;10.00;99.90;;;;;;5069211;28;21126;-78
2023/03/21 01:12:17;;;;;;;1.00;1.00;;;9.90;99.90;;;;;;5069162;28;20103;-79
2023/03/21 01:14:42;;;;;;;1.02;1.02;;;10.00;99.90;;;;;;5073512;28;20850;-78
2023/03/21 01:17:08;;;;;;;1.00;1.00;;;10.10;99.90;;;;;;5070175;28;20042;-78
2023/03/21 01:19:34;;;;;;;1.10;1.10;;;10.10;99.90;;;;;;5072204;28;20537;-78
2023/03/21 01:22:00;;;;;;;1.00;1.00;;;10.10;99.90;;;;;;5074317;28;20058;-78
2023/03/21 01:24:26;;;;;;;1.00;1.00;;;10.00;99.90;;;;;;5074213;28;20505;-78
2023/03/21 01:26:51;;;;;;;1.05;1.05;;;10.00;99.90;;;;;;5052438;28;20564;-78
2023/03/21 01:29:17;;;;;;;1.05;1.05;;;10.10;99.90;;;;;;5048849;28;20040;-78
2023/03/21 01:31:43;;;;;;;1.00;1.00;;;10.10;99.90;;;;;;5068597;28;20102;-78
2023/03/21 01:34:08;;;;;;;1.00;1.00;;;10.20;99.90;;;;;;5071403;28;20043;-78
2023/03/21 01:36:34;;;;;;;1.02;1.02;;;10.00;99.90;;;;;;5068512;28;20043;-78
2023/03/21 01:39:00;;;;;;;1.10;1.10;;;10.00;99.90;;;;;;5047512;28;20085;-78
2023/03/21 01:41:28;;;;;;;1.05;1.05;;;10.00;99.90;;;;;;5071857;28;20791;-78
2023/03/21 01:43:54;;;;;;;1.00;1.00;;;10.10;99.90;;;;;;5070669;28;20089;-78
2023/03/21 01:46:32;;;;;;;1.05;1.05;;;10.20;99.90;;;;;;5069520;28;20044;-78
2023/03/21 01:49:06;;;;;;;1.00;1.00;;;10.20;99.90;;;;;;5072062;28;20122;-77
2023/03/21 01:51:36;;;;;;;1.10;1.10;;;10.10;99.90;;;;;;5071592;28;21683;-78
2023/03/21 01:54:05;;;;;;;1.00;1.00;;;10.20;99.90;;;;;;5053690;28;20059;-78
2023/03/21 01:56:35;;;;;;;1.00;1.00;;;10.10;99.90;;;;;;5074705;28;20048;-78
2023/03/21 01:59:08;;;;;;;1.00;1.00;;;10.20;99.90;;;;;;5071288;28;20052;-77
2023/03/21 02:01:37;;;;;;;0.98;0.98;;;10.10;99.90;;;;;;5064925;28;20131;-78
2023/03/21 02:04:07;;;;;;;0.98;0.98;;;10.10;99.90;;;;;;5065436;28;20040;-78
2023/03/21 02:06:43;;;;;;;1.00;1.00;;;10.10;99.90;;;;;;5055747;28;20048;-78
2023/03/21 02:09:13;;;;;;;0.90;0.90;;;10.20;99.90;;;;;;5053158;28;20175;-78
2023/03/21 02:11:40;;;;;;;0.90;0.90;;;10.20;99.90;;;;;;5072703;28;20059;-78
2023/03/21 02:14:11;;;;;;;0.98;0.98;;;10.30;99.90;;;;;;5054683;28;20760;-79
2023/03/21 02:16:44;;;;;;;0.95;0.95;;;10.20;99.90;;;;;;5074366;28;20651;-78
2023/03/21 02:19:22;;;;;;;0.90;0.90;;;10.30;99.90;;;;;;5073032;28;20679;-78
2023/03/21 02:22:03;;;;;;;0.93;0.93;;;10.20;99.90;;;;;;5067983;28;20032;-78
2023/03/21 02:24:35;;;;;;;0.90;0.90;;;10.10;99.90;;;;;;5028951;28;1228346;-78
2023/03/21 02:27:14;;;;;;;0.95;0.95;;;10.30;99.90;;;;;;5051843;28;21050;-77
2023/03/21 02:30:03;;;;;;;0.98;0.98;;;10.30;99.90;;;;;;5055734;28;20662;-78
2023/03/21 02:32:46;;;;;;;0.95;0.95;;;10.30;99.90;;;;;;5073719;28;20044;-78
2023/03/21 02:35:39;;;;;;;0.98;0.98;;;10.30;99.90;;;;;;5072057;28;20048;-78
2023/03/21 02:38:13;;;;;;;1.00;1.00;;;10.10;99.90;;;;;;5059844;28;20044;-78
2023/03/21 02:40:49;;;;;;;0.95;0.95;;;10.20;99.90;;;;;;5076530;28;20051;-78
2023/03/21 02:43:23;;;;;;;0.90;0.90;;;10.10;99.90;;;;;;5073372;28;20098;-78
2023/03/21 02:46:09;;;;;;;0.80;0.80;;;10.30;99.90;;;;;;5073922;28;20044;-78
2023/03/21 02:49:22;;;;;;;0.90;0.90;;;10.20;99.90;;;;;;5052953;28;20038;-78
2023/03/21 02:51:49;;;;;;;0.90;0.90;;;10.10;99.90;;;;;;5038593;28;20066;-78
2023/03/21 02:54:22;;;;;;;0.90;0.90;;;10.20;99.90;;;;;;5057628;28;20062;-78
2023/03/21 02:56:50;;;;;;;0.90;0.90;;;10.20;99.90;;;;;;5075877;28;20125;-78
2023/03/21 02:59:17;;;;;;;0.90;0.90;;;10.10;99.90;;;;;;5058702;28;20087;-78
2023/03/21 03:01:43;;;;;;;0.90;0.90;;;10.10;99.90;;;;;;5074319;28;20055;-78
2023/03/21 03:04:22;;;;;;;0.88;0.88;;;10.10;99.90;;;;;;5076244;28;20044;-78
2023/03/21 03:06:57;;;;;;;0.93;0.93;;;10.30;99.90;;;;;;5057407;28;20051;-78
2023/03/21 03:09:33;;;;;;;0.93;0.93;;;10.10;99.90;;;;;;5075105;28;20080;-78
2023/03/21 03:12:30;;;;;;;0.85;0.85;;;10.30;99.90;;;;;;5077243;28;20059;-78
2023/03/21 03:15:28;;;;;;;0.90;0.90;;;10.30;99.90;;;;;;5052496;28;20092;-78
2023/03/21 03:18:15;;;;;;;0.90;0.90;;;10.10;99.90;;;;;;5073537;28;20607;-79
2023/03/21 03:21:03;;;;;;;0.98;0.98;;;10.10;99.90;;;;;;5070505;28;20708;-78
2023/03/21 03:23:34;;;;;;;0.90;0.90;;;10.30;99.90;;;;;;5040344;28;20044;-79
2023/03/21 03:26:32;;;;;;;0.90;0.90;;;10.20;99.90;;;;;;5075321;28;20078;-78
2023/03/21 03:29:03;;;;;;;0.93;0.93;;;10.10;99.90;;;;;;5049126;28;20166;-78
2023/03/21 03:31:35;;;;;;;0.90;0.90;;;10.20;99.90;;;;;;5074419;28;20400;-78
2023/03/21 03:34:07;;;;;;;0.90;0.90;;;10.00;99.90;;;;;;5053749;28;20666;-78
2023/03/21 03:36:38;;;;;;;1.20;1.10;;;10.10;99.90;;;;;;5055953;28;20135;-79
2023/03/21 03:39:08;;;;;;;0.98;0.98;;;10.00;99.90;;;;;;5076573;28;20091;-79
2023/03/21 03:41:42;;;;;;;1.00;1.00;;;10.00;99.90;;;;;;5054817;28;20056;-79
2023/03/21 03:44:08;;;;;;;1.00;1.00;;;10.00;99.90;;;;;;5056364;28;20052;-78
2023/03/21 03:47:18;;;;;;;1.00;1.00;;;10.10;99.90;;;;;;5057747;28;20052;-78
2023/03/21 03:49:54;;;;;;;0.90;0.90;;;10.00;99.90;;;;;;5009674;28;20465;-79
2023/03/21 03:52:26;;;;;;;0.90;0.90;;;10.10;99.90;;;;;;5012374;28;20106;-78
2023/03/21 03:54:53;;;;;;;0.90;0.90;;;10.00;99.90;;;;;;5035187;28;20059;-78
2023/03/21 03:57:19;;;;;;;0.90;0.90;;;10.10;99.90;;;;;;5067168;28;20036;-78
2023/03/21 03:59:45;;;;;;;0.90;0.90;;;10.00;99.90;;;;;;5074225;28;20584;-78
2023/03/21 04:02:13;;;;;;;0.95;0.95;;;9.90;99.90;;;;;;5056066;28;20052;-78
2023/03/21 04:04:40;;;;;;;0.93;0.93;;;9.90;99.90;;;;;;5063116;28;20501;-78
2023/03/21 04:07:06;;;;;;;0.90;0.90;;;9.90;99.90;;;;;;5061679;28;20098;-78
2023/03/21 04:09:32;;;;;;;0.95;0.95;;;10.10;99.90;;;;;;5078648;28;22905;-78
2023/03/21 04:11:58;;;;;;;0.98;0.98;;;9.90;99.90;;;;;;5077107;28;20040;-78
2023/03/21 04:14:24;;;;;;;0.90;0.90;;;9.90;99.90;;;;;;5080667;28;20040;-78
2023/03/21 04:16:51;;;;;;;0.90;0.90;;;10.10;99.90;;;;;;5081491;28;20048;-78
2023/03/21 04:19:17;;;;;;;0.90;0.90;;;10.20;99.90;;;;;;5079385;28;20144;-79
2023/03/21 04:21:43;;;;;;;0.90;0.90;;;10.10;99.90;;;;;;5078146;28;20052;-78
2023/03/21 04:24:10;;;;;;;0.90;0.90;;;10.00;99.90;;;;;;5081000;28;20551;-79
2023/03/21 04:26:37;;;;;;;0.90;0.90;;;10.00;99.90;;;;;;5079718;28;20040;-78
2023/03/21 04:29:03;;;;;;;0.90;0.90;;;10.20;99.90;;;;;;5082285;28;20778;-78
2023/03/21 04:31:30;;;;;;;0.90;0.90;;;10.20;99.90;;;;;;5055854;28;20086;-78
2023/03/21 04:34:00;;;;;;;0.90;0.90;;;10.00;99.90;;;;;;5079418;28;20845;-78
2023/03/21 04:36:37;;;;;;;0.90;0.90;;;10.10;99.90;;;;;;5076219;28;20165;-78
2023/03/21 04:39:11;;;;;;;0.90;0.90;;;10.10;99.90;;;;;;5081014;28;20127;-78
2023/03/21 04:41:38;;;;;;;0.90;0.90;;;10.00;99.90;;;;;;5071386;28;20056;-78
2023/03/21 04:44:04;;;;;;;0.90;0.90;;;10.00;99.90;;;;;;5079819;28;20052;-78
2023/03/21 04:46:29;;;;;;;0.90;0.90;;;10.10;99.90;;;;;;5079667;28;20055;-78
2023/03/21 04:48:55;;;;;;;0.90;0.90;;;10.10;99.90;;;;;;5061247;28;20706;-78
2023/03/21 04:51:21;;;;;;;0.93;0.93;;;10.10;99.90;;;;;;5073251;28;20051;-78
2023/03/21 04:53:48;;;;;;;0.90;0.90;;;9.90;99.90;;;;;;5078835;28;20047;-78
2023/03/21 04:56:14;;;;;;;0.90;0.90;;;10.10;99.90;;;;;;5078140;28;20127;-79
2023/03/21 04:58:41;;;;;;;0.90;0.90;;;9.90;99.90;;;;;;5078640;28;20769;-78
2023/03/21 05:01:07;;;;;;;0.90;0.90;;;10.10;99.90;;;;;;5076681;28;20093;-78
2023/03/21 05:03:33;;;;;;;0.88;0.88;;;9.90;99.90;;;;;;5053671;28;20053;-78
2023/03/21 05:06:02;;;;;;;0.88;0.88;;;9.90;99.90;;;;;;5078175;28;20130;-78
2023/03/21 05:08:28;;;;;;;0.90;0.90;;;10.10;99.90;;;;;;5058385;28;20591;-78
2023/03/21 05:10:54;;;;;;;0.90;0.90;;;10.00;99.90;;;;;;5076650;28;20071;-79
2023/03/21 05:13:20;;;;;;;0.90;0.90;;;10.00;99.90;;;;;;5078219;28;20093;-78
2023/03/21 05:15:45;;;;;;;0.93;0.93;;;10.00;99.90;;;;;;5079218;28;20129;-78
2023/03/21 05:18:11;;;;;;;0.90;0.90;;;10.00;99.90;;;;;;5077939;28;20593;-78
2023/03/21 05:20:43;;;;;;;0.90;0.90;;;9.90;99.90;;;;;;5076933;28;20044;-78
2023/03/21 05:23:10;;;;;;;0.90;0.90;;;9.90;99.90;;;;;;5077161;28;20417;-78
2023/03/21 05:25:37;;;;;;;0.90;0.90;;;9.90;99.90;;;;;;5076138;28;20074;-78
2023/03/21 05:28:05;;;;;;;0.93;0.93;;;9.90;99.90;;;;;;5060000;28;20044;-78
2023/03/21 05:30:31;;;;;;;0.88;0.88;;;10.00;99.90;;;;;;5076387;28;20117;-78
2023/03/21 05:32:57;;;;;;;0.90;0.90;;;9.80;99.90;;;;;;5076640;28;20102;-78
2023/03/21 05:35:23;;;;;;;0.90;0.90;;;9.90;99.90;;;;;;5075353;28;20400;-78
2023/03/21 05:37:49;;;;;;;0.85;0.85;;;10.00;99.90;;;;;;5076866;28;20048;-79
2023/03/21 05:40:15;;;;;;;0.95;0.95;;;9.90;99.90;;;;;;5058289;28;20048;-78
2023/03/21 05:42:41;;;;;;;0.90;0.90;;;9.90;99.90;;;;;;5077671;28;20036;-78
2023/03/21 05:45:07;;;;;;;0.90;0.90;;;9.80;99.90;;;;;;5078354;28;20158;-78
2023/03/21 05:47:33;;;;;;;0.90;0.90;;;9.80;99.90;;;;;;5053485;28;20485;-79
2023/03/21 05:49:58;;;;;;;1.00;1.00;;;9.90;99.90;;;;;;5041598;28;20048;-79
2023/03/21 05:52:24;;;;;;;0.90;0.90;;;9.80;99.90;;;;;;5074734;28;20051;-79
2023/03/21 05:54:50;;;;;;;0.90;0.90;;;9.80;99.90;;;;;;5060338;28;20075;-78
2023/03/21 05:57:18;;;;;;;0.82;0.82;;;9.90;99.90;;;;;;5056780;28;20143;-78
2023/03/21 05:59:44;;;;;;;0.90;0.90;;;9.80;99.90;;;;;;5077376;28;20058;-78
2023/03/21 06:02:10;;;;;;;0.90;0.90;;;10.00;99.90;;;;;;5074103;28;20055;-78
2023/03/21 06:04:36;;;;;;;0.82;0.82;;;9.80;99.90;;;;;;5076917;28;20051;-79
2023/03/21 06:07:02;;;;;;;0.90;0.90;;;10.00;99.90;;;;;;5074899;28;20036;-78
2023/03/21 06:09:28;;;;;;;0.90;0.90;;;9.80;99.90;;;;;;5075327;28;20390;-79
2023/03/21 06:11:56;;;;;;;0.90;0.90;;;9.80;99.90;;;;;;5069593;28;20047;-78
2023/03/21 06:14:22;;;;;;;0.80;0.80;;;9.90;99.90;;;;;;5070774;28;20593;-79
2023/03/21 06:16:49;;;;;;;0.88;0.88;;;10.00;99.90;;;;;;5057574;28;20070;-78
2023/03/21 06:19:15;;;;;;;0.82;0.82;;;9.90;99.90;;;;;;5075815;28;20083;-78
2023/03/21 06:21:41;;;;;;;0.80;0.80;;;10.00;99.90;;;;;;5076249;28;20071;-77
2023/03/21 06:24:07;;;;;;;0.80;0.80;;;9.90;99.90;;;;;;5059727;28;20444;-78
2023/03/21 06:26:33;;;;;;;0.85;0.85;;;9.90;99.90;;;;;;5059098;28;20101;-79
2023/03/21 06:28:59;;;;;;;0.80;0.80;;;9.90;99.90;;;;;;5060652;28;20056;-79
2023/03/21 06:31:25;;;;;;;0.80;0.80;;;10.00;99.90;;;;;;5070638;28;20040;-79
2023/03/21 06:33:51;;;;;;;0.82;0.82;;;10.00;99.90;;;;;;5075258;28;20051;-78
2023/03/21 06:36:18;;;;;;;0.80;0.80;;;10.10;99.90;;;;;;5076594;28;20044;-78
2023/03/21 06:38:45;;;;;;;0.82;0.82;;;10.10;99.90;;;;;;5040497;28;20098;-79
2023/03/21 06:41:12;;;;;;;0.80;0.80;;;9.90;99.90;;;;;;5078228;28;20040;-77
2023/03/21 06:43:37;;;;;;;0.80;0.80;;;10.00;99.90;;;;;;5076235;28;20521;-78
2023/03/21 06:46:04;;;;;;;0.80;0.80;;;10.10;99.90;;;;;;5078055;28;20126;-79
2023/03/21 06:48:30;;;;;;;0.90;0.90;;;10.00;99.90;;;;;;5042042;28;20043;-78
2023/03/21 06:50:56;;;;;;;0.80;0.80;;;10.10;99.90;;;;;;5057331;28;20736;-78
2023/03/21 06:53:26;;;;;;;0.90;0.90;;;10.00;99.90;;;;;;5056939;28;20796;-79
2023/03/21 06:55:53;;;;;;;0.80;0.80;;;10.20;99.90;;;;;;5060699;28;20670;-79
2023/03/21 06:58:19;;;;;;;0.80;0.80;;;10.10;99.90;;;;;;5039448;28;20824;-79
2023/03/21 07:00:45;;;;;;;0.80;0.80;;;10.10;99.90;;;;;;5030181;28;20052;-79
2023/03/21 07:03:11;;;;;;;0.80;0.80;;;10.20;99.90;;;;;;5045854;28;20552;-79
2023/03/21 07:05:38;;;;;;;0.90;0.90;;;10.10;99.90;;;;;;5028003;28;20051;-79
2023/03/21 07:08:12;;;;;;;0.90;0.90;;;10.00;99.90;;;;;;5065195;28;20040;-79
2023/03/21 07:10:42;;;;;;;1.00;1.00;;;10.00;99.90;;;;;;5046482;28;20166;-79
2023/03/21 07:13:08;;;;;;;1.00;1.00;;;10.00;99.90;;;;;;5064541;28;20040;-78
2023/03/21 07:15:36;;;;;;;0.90;0.90;;;10.10;99.90;;;;;;5065184;28;20097;-79
2023/03/21 07:18:07;;;;;;;0.90;0.90;;;10.00;99.90;;;;;;5069583;28;20449;-78
2023/03/21 07:20:33;;;;;;;0.90;0.90;;;10.10;99.90;;;;;;5031705;28;20079;-78
2023/03/21 07:22:59;;;;;;;0.90;0.90;;;10.00;99.90;;;;;;5050037;28;20043;-77
2023/03/21 07:25:26;;;;;;;0.90;0.90;;;10.10;99.90;;;;;;5036351;28;20059;-79
2023/03/21 07:27:52;;;;;;;0.90;0.90;;;10.00;99.90;;;;;;5064872;28;20078;-79
2023/03/21 07:30:18;;;;;;;0.90;0.90;;;10.00;99.90;;;;;;5063415;28;20050;-78
2023/03/21 07:32:47;;;;;;;0.93;0.93;;;10.00;99.90;;;;;;5061342;28;20044;-79
2023/03/21 07:35:15;;;;;;;0.90;0.90;;;10.00;99.90;;;;;;5066396;28;20048;-78
2023/03/21 07:37:41;;;;;;;0.93;0.93;;;10.10;99.90;;;;;;5050242;28;20044;-78
2023/03/21 07:40:09;;;;;;;0.90;0.90;;;10.00;99.90;;;;;;5066943;28;20086;-78
2023/03/21 07:42:35;;;;;;;0.90;0.90;;;10.00;99.90;;;;;;5052120;28;20043;-79
2023/03/21 07:45:03;;;;;;;0.90;0.90;;;10.20;99.90;;;;;;5079520;28;20051;-79
2023/03/21 07:47:30;;;;;;;0.95;0.95;;;10.10;99.90;;;;;;5054738;28;20036;-78
2023/03/21 07:49:59;;;;;;;0.93;0.93;;;10.10;99.90;;;;;;5056111;28;20109;-79
2023/03/21 07:52:25;;;;;;;0.90;0.90;;;10.20;99.90;;;;;;5059746;28;20043;-79
2023/03/21 07:54:50;;;;;;;0.90;0.90;;;10.00;99.90;;;;;;5077189;28;20425;-79
2023/03/21 07:57:16;;;;;;;0.90;0.90;;;10.20;99.90;;;;;;5077494;28;20047;-78
2023/03/21 07:59:42;;;;;;;0.90;0.90;;;10.30;99.90;;;;;;5075988;28;20039;-79
2023/03/21 08:02:16;;;;;;;0.85;0.85;;;10.30;99.90;;;;;;5061980;28;20047;-78
2023/03/21 08:04:42;;;;;;;0.90;0.90;;;10.20;99.90;;;;;;5063304;28;20532;-78
2023/03/21 08:07:08;;;;;;;0.80;0.80;;;10.20;99.90;;;;;;5081307;28;20047;-79
2023/03/21 08:09:35;;;;;;;0.80;0.80;;;10.40;99.90;;;;;;5079952;28;20077;-79
2023/03/21 08:12:00;;;;;;;0.90;0.90;;;10.30;99.90;;;;;;5080676;28;20097;-78
2023/03/21 08:14:26;;;;;;;0.80;0.80;;;10.50;99.90;;;;;;5080650;28;20063;-79
2023/03/21 08:16:52;;;;;;;0.90;0.90;;;10.50;99.90;;;;;;5064425;28;20285;-78
2023/03/21 08:19:20;;;;;;;0.90;0.90;;;10.50;99.90;;;;;;5079250;28;20051;-79
2023/03/21 08:21:49;;;;;;;0.80;0.80;;;10.40;99.90;;;;;;5079645;28;20475;-79
2023/03/21 08:24:15;;;;;;;0.90;0.90;;;10.40;99.90;;;;;;5081729;28;20512;-78
2023/03/21 08:26:43;;;;;;;0.90;0.90;;;10.50;99.90;;;;;;5063141;28;20059;-80
2023/03/21 08:29:09;;;;;;;0.80;0.80;;;10.40;99.90;;;;;;5079888;28;20524;-79
2023/03/21 08:31:35;;;;;;;0.90;0.90;;;10.40;99.90;;;;;;5079458;28;20075;-80
2023/03/21 08:34:01;;;;;;;0.82;0.82;;;10.60;99.90;;;;;;5065152;28;20758;-81
2023/03/21 08:36:27;;;;;;;0.80;0.80;;;10.60;99.90;;;;;;5081867;28;20117;-79
2023/03/21 08:38:55;;;;;;;0.80;0.80;;;10.70;99.90;;;;;;5082146;28;20048;-79
2023/03/21 08:41:23;;;;;;;0.85;0.85;;;10.80;99.90;;;;;;5061390;28;20048;-80
2023/03/21 08:43:49;;;;;;;0.80;0.80;;;10.60;99.90;;;;;;5057989;28;20040;-79
2023/03/21 08:46:15;;;;;;;0.82;0.82;;;10.70;99.90;;;;;;5061347;28;20543;-79
2023/03/21 08:48:41;;;;;;;0.80;0.80;;;10.60;99.90;;;;;;5055162;28;20066;-81
2023/03/21 08:51:07;;;;;;;0.80;0.80;;;10.70;99.90;;;;;;5079205;28;20040;-80
2023/03/21 08:53:33;;;;;;;0.85;0.85;;;10.60;99.90;;;;;;5075732;28;20523;-79
2023/03/21 08:55:59;;;;;;;0.80;0.80;;;10.60;99.90;;;;;;5060755;28;20039;-80
2023/03/21 08:58:25;;;;;;;0.80;0.80;;;10.70;99.90;;;;;;5079258;28;20043;-80
2023/03/21 09:00:51;;;;;;;0.80;0.80;;;10.70;99.90;;;;;;5078051;28;20040;-79
2023/03/21 09:03:17;;;;;;;0.80;0.80;;;10.70;99.90;;;;;;5074609;28;20467;-80
2023/03/21 09:05:44;;;;;;;0.80;0.80;;;10.60;99.90;;;;;;5035738;28;20083;-79
2023/03/21 09:08:11;;;;;;;0.90;0.90;;;10.70;99.90;;;;;;5070973;28;20071;-78
2023/03/21 09:10:38;;;;;;;0.90;0.90;;;10.80;99.90;;;;;;5055112;28;20070;-79
2023/03/21 09:13:04;;;;;;;0.70;0.70;;;10.80;99.90;;;;;;5078677;28;20036;-80
2023/03/21 09:15:30;;;;;;;0.88;0.88;;;10.90;99.90;;;;;;5060938;28;20044;-80
2023/03/21 09:17:57;;;;;;;0.80;0.80;;;10.80;99.90;;;;;;5038994;28;20137;-80
2023/03/21 09:20:29;;;;;;;0.80;0.80;;;10.80;99.90;;;;;;5067761;28;20040;-79
2023/03/21 09:22:56;;;;;;;0.80;0.80;;;10.80;99.90;;;;;;5068853;28;20059;-79
2023/03/21 09:25:23;;;;;;;0.80;0.80;;;10.80;99.90;;;;;;5059549;28;20077;-79
2023/03/21 09:27:50;;;;;;;0.77;0.77;;;11.00;99.90;;;;;;5070732;28;20045;-80
2023/03/21 09:30:17;;;;;;;0.80;0.80;;;11.00;99.90;;;;;;5054759;28;20055;-79
2023/03/21 09:32:48;;;;;;;0.70;0.70;;;10.90;99.90;;;;;;5074392;28;20056;-80
2023/03/21 09:35:17;;;;;;;0.80;0.80;;;10.90;99.90;;;;;;5060257;28;20155;-79
2023/03/21 09:37:44;;;;;;;0.80;0.80;;;11.10;99.90;;;;;;5072543;28;20055;-80
2023/03/21 09:40:34;;;;;;;0.80;0.80;;;11.00;99.90;;;;;;5071975;28;20044;-80
2023/03/21 09:43:29;;;;;;;0.70;0.70;;;11.00;99.90;;;;;;5072289;28;20044;-80
2023/03/21 09:46:18;;;;;;;0.80;0.80;;;10.80;99.90;;;;;;5036698;28;20609;-79
2023/03/21 09:48:57;;;;;;;0.80;0.80;;;10.90;99.90;;;;;;5071797;28;20131;-80
2023/03/21 09:51:27;;;;;;;0.70;0.70;;;10.90;99.90;;;;;;5074045;28;20662;-79
2023/03/21 09:53:56;;;;;;;0.70;0.70;;;11.00;99.90;;;;;;5058059;28;20431;-80
2023/03/21 09:56:24;;;;;;;0.70;0.70;;;11.10;99.90;;;;;;5078371;28;20765;-80
2023/03/21 09:58:57;;;;;;;0.70;0.70;;;11.00;99.90;;;;;;5072642;28;20470;-80
2023/03/21 10:01:28;;;;;;;0.70;0.70;;;11.20;99.90;;;;;;5073327;28;20044;-80
2023/03/21 10:03:59;;;;;;;0.70;0.70;;;11.20;99.90;;;;;;5077753;28;20074;-79
2023/03/21 10:06:28;;;;;;;0.70;0.70;;;11.10;99.90;;;;;;5076111;28;20493;-80
2023/03/21 10:08:59;;;;;;;0.80;0.80;;;11.00;99.90;;;;;;5074293;28;20036;-80
2023/03/21 10:11:30;;;;;;;0.70;0.70;;;11.00;99.90;;;;;;5076935;28;20151;-78
2023/03/21 10:14:11;;;;;;;0.70;0.70;;;11.00;99.90;;;;;;5059821;28;20048;-80
2023/03/21 10:16:42;;;;;;;0.70;0.70;;;10.90;99.90;;;;;;5058586;28;20048;-80
2023/03/21 10:19:12;;;;;;;0.70;0.70;;;10.90;99.90;;;;;;5076429;28;20138;-80
2023/03/21 10:21:45;;;;;;;0.70;0.70;;;11.00;99.90;;;;;;5068797;28;20052;-80
2023/03/21 10:24:32;;;;;;;0.70;0.70;;;11.00;99.90;;;;;;5075007;28;20131;-80
2023/03/21 10:27:00;;;;;;;0.70;0.70;;;11.00;99.90;;;;;;5075089;28;20159;-81
2023/03/21 10:29:31;;;;;;;0.70;0.70;;;11.10;99.90;;;;;;5075268;28;20131;-81
2023/03/21 10:31:56;;;;;;;0.70;0.70;;;11.10;99.90;;;;;;5060027;28;20648;-81
2023/03/21 10:34:30;;;;;;;0.70;0.70;;;11.20;99.90;;;;;;5077323;28;20050;-81
2023/03/21 10:36:55;;;;;;;0.60;0.60;;;11.30;99.90;;;;;;5076633;28;20073;-80
2023/03/21 10:39:46;;;;;;;0.70;0.70;;;11.20;99.90;;;;;;5075615;28;20485;-81
2023/03/21 10:42:32;;;;;;;0.60;0.60;;;11.30;99.90;;;;;;5075813;28;20529;-82
2023/03/21 10:44:58;;;;;;;0.70;0.70;;;11.20;99.90;;;;;;5060293;28;20101;-81
2023/03/21 10:47:26;;;;;;;0.70;0.70;;;11.40;99.90;;;;;;5075418;28;20047;-81
2023/03/21 10:49:53;;;;;;;0.70;0.70;;;11.30;99.90;;;;;;5058424;28;20052;-82
2023/03/21 10:52:21;;;;;;;0.60;0.60;;;11.30;99.90;;;;;;5059264;28;20054;-82
2023/03/21 10:54:48;;;;;;;0.70;0.70;;;11.50;99.90;;;;;;5058708;28;20044;-81
2023/03/21 10:57:21;;;;;;;0.68;0.68;;;11.30;99.90;;;;;;5076380;28;20055;-81
2023/03/21 10:59:56;;;;;;;0.70;0.70;;;11.40;99.90;;;;;;5076417;28;20044;-82
2023/03/21 11:02:35;;;;;;;0.70;0.70;;;11.40;99.90;;;;;;5077258;28;20464;-82
2023/03/21 11:05:14;;;;;;;0.65;0.65;;;11.40;99.90;;;;;;5078476;28;20513;-81
2023/03/21 11:07:40;;;;;;;0.60;0.60;;;11.30;99.90;;;;;;5056931;28;20040;-81
2023/03/21 11:10:15;;;;;;;0.60;0.60;;;11.30;99.90;;;;;;5073817;28;20536;-81
2023/03/21 11:12:46;;;;;;;0.60;0.60;;;11.40;99.90;;;;;;5076284;28;20040;-80
2023/03/21 11:15:35;;;;;;;0.60;0.60;;;11.60;99.90;;;;;;5076219;28;20103;-81
2023/03/21 11:18:16;;;;;;;0.60;0.60;;;11.60;99.90;;;;;;5069855;28;20051;-81
2023/03/21 11:20:48;;;;;;;0.60;0.60;;;11.50;99.90;;;;;;5069308;28;20028;-81
2023/03/21 11:23:15;;;;;;;0.60;0.60;;;11.60;99.90;;;;;;5054170;28;20040;-81
2023/03/21 11:25:41;;;;;;;0.60;0.60;;;11.60;99.90;;;;;;5047945;28;20047;-82
2023/03/21 11:28:17;;;;;;;0.60;0.60;;;11.70;99.90;;;;;;5055216;28;20425;-80
2023/03/21 11:30:56;;;;;;;0.60;0.60;;;11.60;99.90;;;;;;5051042;28;20048;-80
2023/03/21 11:33:26;;;;;;;0.60;0.60;;;11.70;99.90;;;;;;5072684;28;20722;-80
2023/03/21 11:36:17;;;;;;;0.60;0.60;;;11.80;99.90;;;;;;5053500;28;20432;-81
2023/03/21 11:38:42;;;;;;;0.60;0.60;;;12.00;99.90;;;;;;5057596;28;20052;-81
2023/03/21 11:41:20;;;;;;;0.60;0.60;;;12.20;99.90;;;;;;5074188;28;20035;-80
2023/03/21 11:43:51;;;;;;;0.60;0.60;;;12.40;99.90;;;;;;5061149;28;20059;-80
2023/03/21 11:46:22;;;;;;;0.60;0.60;;;12.20;99.90;;;;;;5038105;28;20601;-81
2023/03/21 11:48:48;;;;;;;0.60;0.60;;;12.20;99.90;;;;;;5079051;28;20059;-80
2023/03/21 11:51:23;;;;;;;0.60;0.60;;;12.20;99.90;;;;;;5059683;28;20079;-81
2023/03/21 11:54:11;;;;;;;0.60;0.60;;;12.10;99.90;;;;;;5076454;28;20069;-82
2023/03/21 11:56:50;;;;;;;0.60;0.60;;;12.10;99.90;;;;;;5058128;28;20139;-80
2023/03/21 11:59:47;;;;;;;0.60;0.60;;;12.10;99.90;;;;;;5057444;28;20048;-80
2023/03/21 12:02:18;;;;;;;0.60;0.60;;;12.10;99.90;;;;;;5076056;28;20051;-80
2023/03/21 12:04:47;;;;;;;0.60;0.60;;;12.20;99.90;;;;;;5075370;28;20092;-80
2023/03/21 12:07:52;;;;;;;0.60;0.60;;;12.30;99.90;;;;;;5059388;28;20881;-79
2023/03/21 12:10:34;;;;;;;0.60;0.60;;;12.30;99.90;;;;;;5074927;28;20047;-80
2023/03/21 12:13:34;;;;;;;0.60;0.60;;;12.30;99.90;;;;;;5072591;28;20040;-80
2023/03/21 12:16:11;;;;;;;0.60;0.60;;;12.40;99.90;;;;;;5042327;28;20074;-80
2023/03/21 12:18:59;;;;;;;0.60;0.60;;;12.60;99.90;;;;;;5056336;28;20078;-80
2023/03/21 12:21:40;;;;;;;0.60;0.60;;;12.70;99.90;;;;;;5057503;28;20127;-80
2023/03/21 12:24:21;;;;;;;0.60;0.60;;;13.00;99.90;;;;;;5078523;28;20040;-79
2023/03/21 12:27:20;;;;;;;0.60;0.60;;;13.00;99.90;;;;;;5078620;28;20155;-79
2023/03/21 12:29:52;;;;;;;0.60;0.60;;;13.10;99.90;;;;;;5059457;28;20058;-79
2023/03/21 12:32:36;;;;;;;0.60;0.60;;;12.90;99.90;;;;;;5061041;28;20474;-78
2023/03/21 12:35:14;;;;;;;0.60;0.60;;;12.90;99.90;;;;;;5080886;28;20051;-78
2023/03/21 12:38:02;;;;;;;0.60;0.60;;;12.90;99.90;;;;;;5078239;28;20059;-80
2023/03/21 12:40:52;;;;;;;0.60;0.60;;;12.90;99.90;;;;;;5075110;28;20046;-79
2023/03/21 12:43:36;;;;;;;0.60;0.60;;;13.00;99.90;;;;;;5060136;28;20436;-79
2023/03/21 12:46:21;;;;;;;0.60;0.60;;;12.80;99.90;;;;;;5062590;28;20040;-79
2023/03/21 12:49:28;;;;;;;0.60;0.60;;;12.80;99.90;;;;;;5079015;28;20048;-79
2023/03/21 12:52:03;;;;;;;0.60;0.60;;;12.80;99.90;;;;;;5077291;28;20052;-79
2023/03/21 12:54:41;;;;;;;0.60;0.60;;;12.80;99.90;;;;;;5079845;28;20127;-79
2023/03/21 12:57:10;;;;;;;0.60;0.60;;;12.90;99.90;;;;;;5061361;28;20048;-79
2023/03/21 12:59:54;;;;;;;0.52;0.52;;;12.90;99.90;;;;;;5077867;28;20074;-79
2023/03/21 13:02:39;;;;;;;0.60;0.60;;;12.70;99.90;;;;;;5060250;28;20101;-79
2023/03/21 13:05:26;;;;;;;0.60;0.60;;;12.50;99.90;;;;;;5058320;28;20044;-79
2023/03/21 13:07:58;;;;;;;0.60;0.60;;;12.40;99.90;;;;;;5043243;28;20048;-78